Aeroporto :
LOGIN :

Iscrizione | Disclaimer

   EN    FR    IT 

 










Sommario :    VFR   VFR Marginale   IFR   IFR Intensivo   IFR Molto Intensivo
Visibilità : 
Base nubi : 
>= 8 km
>= 3000ft
5 / 8 km
1000 / 3000 ft
1500m / 5 km
500 / 1000 ft
800 / 1500m
200 / 500 ft
< 800m
< 200 ft
Simboli :   Temporali  Nebbia  Neve Forte  Precipitazioni Forti  Vento > 20 kt
SIGMETs :   Varie  Temporali  Ghiacco  Turbolenza  Onda orograficha  Ceneri Vulcaniche







- Altitudine del aeroporto : 157 ft
- Codice IATA : SXF


EDDB - Berlin Schönefeld

ULTIMO METAR :
  • 220820Z 11003KT 070V170 7000 OVC008 09/07 Q1034 TEMPO 4500 BR

METARs OBSOLETI :
  • 220750Z VRB02KT 6000 OVC008 09/07 Q1034 TEMPO 4500 BR
  • 220720Z 07003KT 5000 OVC008 08/07 Q1034 TEMPO 4500 BR
  • 220650Z 07003KT 050V110 5000 OVC008 08/07 Q1034 TEMPO 4500 BR
  • 220620Z VRB02KT 5000 OVC007 08/07 Q1033 TEMPO 4500 BR
  • 220550Z VRB02KT 5000 BR BKN008 08/07 Q1033 TEMPO 4500 BR

TAF TAF EDDB
Valido dal 22 a 06 ore il 23 a 06 ore UTC


220500Z 2206/2306 VRB03KT 6000 BKN012
TEMPO 2206/2208 4000 BR BKN008
BECMG 2208/2211 CAVOK
BECMG 2213/2215 13005KT
Nessun NOTAM noto per questo aeroporto.



MetMap, La meteo Aeronautica in un colpo d'occhio ! - Copyright ORBIFLY Dicembre 2007 - Disclaimer

ORBIFLY MET'MAP TEAM :

Programmazione e sviluppo : Alexandra Zaïnal
Concezione e sviluppo : Baudouin d'Aumeries
Co-Programmazione e sviluppo : Marc-Olivier Méhu
Supporto tecnico e logistico : Manuel Goepfert
Aiuto per la traduzione : Arnaldo La Scala

Contatto : metmap@orbifly.com




FONTI E CREDITI :

   NOAA